Darstellungsparameter: Aktuell verwendete Einstellungen:
Skalierung der Graphiken ... ?
xyx+y,   Skalierungsfaktor:      Skalierung: Modus: x, Faktor: 1
Darstellungszeitraum ... ?
Vom - - bis: - -   Zeitraum: 25.02.2021 - 25.02.2021
Min/Max/Avg-Anzeige ... ?
Zeige MMA aktuell
Zeige MMA Monat
Zeige MMA alles
Zeige --A aktuell
Zeige --A Monat
Zeige --A alles
Keine MMA-Anzeige
MMA:
Keine MMA-Graphiken
MMA-Basis: 25.02.2021 - 25.02.2021
Quicknavigation für Darstellung... ?
Tage:      1T, 2T, 3T, 5T -1T -2T -3T -5T +1T +2T +3T +5T
Wochen: 1W, 2W, 3W -1W -2W -3W +1W +2W +3W
Monate: 1M, 3M, 6M -1M -3M -6M +1M +3M +6M
Jahre:    1J, 3J, 5J, 10J -1J -3J -5J -10J +1J +3J +5J +10J
Nutze für die Darstellung ... ?
Originaldaten oder Mittelwerte auf ...
Stundenbasis Tagesbasis Wochenbasis
Monatsbasis Jahresbasis      Datenbasis: Original-Daten
Darstellen als:
Statistik (Auto) Statistik J:M      Darstellung:

Der gewünschte Datumsbereich war nicht gültig/verfügbar und wurde korrigiert....
Das angegebene Enddatum (18.02.2029 23:59:59) liegt in der Zukunft.
Das angegebene Startdatum (18.02.2029 00:00:00) liegt in der Zukunft.


Zur Graphik,    zurück zur Übersicht aller Sensoren.
 
Tabellarische Datenbersicht: ?
 
Sensor: Nr:Datum:Temp:Feuchte:Taupunkt:
Aussen-T/F 1 25-02-2021 01:00:00 6.7 C 95 % 5.96 C
2 25-02-2021 01:05:00 6.7 C 95 % 5.96 C
3 25-02-2021 01:10:00 6.6 C 95 % 5.86 C
4 25-02-2021 01:15:00 6.5 C 95 % 5.76 C
5 25-02-2021 01:20:00 6.4 C 94 % 5.51 C
6 25-02-2021 01:25:00 6.2 C 94 % 5.31 C
7 25-02-2021 01:30:00 6.1 C 94 % 5.21 C
8 25-02-2021 01:35:00 6 C 94 % 5.11 C
9 25-02-2021 01:40:00 5.8 C 94 % 4.91 C
10 25-02-2021 01:45:00 5.7 C 94 % 4.81 C
11 25-02-2021 01:50:00 5.6 C 94 % 4.71 C
12 25-02-2021 01:55:00 5.6 C 94 % 4.71 C
13 25-02-2021 02:00:00 5.6 C 95 % 4.86 C
14 25-02-2021 02:05:00 5.7 C 95 % 4.96 C
15 25-02-2021 02:10:00 5.8 C 95 % 5.06 C
16 25-02-2021 02:15:00 5.8 C 95 % 5.06 C
17 25-02-2021 02:20:00 5.7 C 95 % 4.96 C
18 25-02-2021 02:25:00 5.6 C 95 % 4.86 C
19 25-02-2021 02:30:00 5.6 C 95 % 4.86 C
20 25-02-2021 02:35:00 5.6 C 95 % 4.86 C
21 25-02-2021 02:40:00 5.6 C 95 % 4.86 C
22 25-02-2021 02:45:00 5.5 C 95 % 4.76 C
23 25-02-2021 02:50:00 5.5 C 95 % 4.76 C
24 25-02-2021 02:55:00 5.4 C 95 % 4.66 C
25 25-02-2021 03:00:00 5.4 C 95 % 4.66 C
Sensor: Nr:Datum:Temp:Feuchte:Taupunkt:
Aussen-T/F 26 25-02-2021 03:05:00 5.4 C 95 % 4.66 C
27 25-02-2021 03:10:00 5.3 C 95 % 4.57 C
28 25-02-2021 03:15:00 5.2 C 95 % 4.47 C
29 25-02-2021 03:20:00 5.3 C 95 % 4.57 C
30 25-02-2021 03:25:00 5.3 C 95 % 4.57 C
31 25-02-2021 03:30:00 5.3 C 95 % 4.57 C
32 25-02-2021 03:35:00 5.2 C 95 % 4.47 C
33 25-02-2021 03:40:00 5.1 C 95 % 4.37 C
34 25-02-2021 03:45:00 5 C 95 % 4.27 C
35 25-02-2021 03:50:00 4.9 C 95 % 4.17 C
36 25-02-2021 03:55:00 4.9 C 95 % 4.17 C
37 25-02-2021 04:00:00 4.8 C 95 % 4.07 C
38 25-02-2021 04:05:00 4.7 C 95 % 3.97 C
39 25-02-2021 04:10:00 4.6 C 95 % 3.87 C
40 25-02-2021 04:15:00 4.5 C 95 % 3.77 C
41 25-02-2021 04:20:00 4.5 C 95 % 3.77 C
42 25-02-2021 04:25:00 4.4 C 95 % 3.67 C
43 25-02-2021 04:30:00 4.5 C 95 % 3.77 C
44 25-02-2021 04:35:00 4.4 C 95 % 3.67 C
45 25-02-2021 04:40:00 4.3 C 95 % 3.57 C
46 25-02-2021 04:45:00 4.3 C 95 % 3.57 C
47 25-02-2021 04:50:00 4.3 C 95 % 3.57 C
48 25-02-2021 04:55:00 4.4 C 95 % 3.67 C
49 25-02-2021 05:00:00 4.4 C 95 % 3.67 C
50 25-02-2021 05:05:00 4.4 C 96 % 3.82 C
Sensor: Nr:Datum:Temp:Feuchte:Taupunkt:
Aussen-T/F 51 25-02-2021 05:10:00 4.4 C 96 % 3.82 C
52 25-02-2021 05:15:00 4.4 C 96 % 3.82 C
53 25-02-2021 05:20:00 4.3 C 95 % 3.57 C
54 25-02-2021 05:25:00 4.3 C 96 % 3.72 C
55 25-02-2021 05:30:00 4.2 C 96 % 3.62 C
56 25-02-2021 05:35:00 4.2 C 96 % 3.62 C
57 25-02-2021 05:40:00 4.1 C 95 % 3.37 C
58 25-02-2021 05:45:00 3.9 C 95 % 3.17 C
59 25-02-2021 05:50:00 3.8 C 95 % 3.07 C
60 25-02-2021 05:55:00 3.7 C 95 % 2.98 C
61 25-02-2021 06:00:00 3.7 C 95 % 2.98 C
62 25-02-2021 06:05:00 3.7 C 96 % 3.12 C
63 25-02-2021 06:10:00 3.7 C 96 % 3.12 C
64 25-02-2021 06:15:00 3.7 C 96 % 3.12 C
65 25-02-2021 06:20:00 3.8 C 96 % 3.22 C
66 25-02-2021 06:25:00 3.9 C 96 % 3.32 C
67 25-02-2021 06:30:00 3.9 C 96 % 3.32 C
68 25-02-2021 06:35:00 3.9 C 96 % 3.32 C
69 25-02-2021 06:40:00 3.8 C 96 % 3.22 C
70 25-02-2021 06:45:00 3.7 C 96 % 3.12 C
71 25-02-2021 06:50:00 3.7 C 96 % 3.12 C
72 25-02-2021 06:55:00 3.7 C 96 % 3.12 C
73 25-02-2021 07:00:00 3.7 C 96 % 3.12 C
74 25-02-2021 07:05:00 3.5 C 96 % 2.92 C
75 25-02-2021 07:10:00 3.4 C 96 % 2.82 C
Sensor: Nr:Datum:Temp:Feuchte:Taupunkt:
Aussen-T/F 76 25-02-2021 07:15:00 3.3 C 96 % 2.72 C
77 25-02-2021 07:20:00 3.3 C 96 % 2.72 C
78 25-02-2021 07:25:00 3.3 C 96 % 2.72 C
79 25-02-2021 07:30:00 3.3 C 96 % 2.72 C
80 25-02-2021 07:35:00 3.2 C 96 % 2.63 C
81 25-02-2021 07:40:00 3.2 C 96 % 2.63 C
82 25-02-2021 07:45:00 3.2 C 96 % 2.63 C
83 25-02-2021 07:50:00 3.3 C 96 % 2.72 C
84 25-02-2021 07:55:00 3.3 C 96 % 2.72 C
85 25-02-2021 08:00:00 3.4 C 96 % 2.82 C
86 25-02-2021 08:05:00 3.5 C 96 % 2.92 C
87 25-02-2021 08:10:00 3.5 C 96 % 2.92 C
88 25-02-2021 08:15:00 3.6 C 96 % 3.02 C
89 25-02-2021 08:20:00 3.7 C 96 % 3.12 C
90 25-02-2021 08:25:00 3.8 C 97 % 3.37 C
91 25-02-2021 08:30:00 3.9 C 96 % 3.32 C
92 25-02-2021 08:35:00 3.9 C 96 % 3.32 C
93 25-02-2021 08:40:00 3.9 C 96 % 3.32 C
94 25-02-2021 08:45:00 3.9 C 96 % 3.32 C
95 25-02-2021 08:50:00 3.9 C 96 % 3.32 C
96 25-02-2021 08:55:00 3.9 C 96 % 3.32 C
97 25-02-2021 09:00:00 3.9 C 96 % 3.32 C
98 25-02-2021 09:05:00 3.9 C 96 % 3.32 C
99 25-02-2021 09:10:00 4 C 96 % 3.42 C
100 25-02-2021 09:15:00 4.1 C 97 % 3.67 C
Sensor: Nr:Datum:Temp:Feuchte:Taupunkt:
Aussen-T/F 101 25-02-2021 09:20:00 4.2 C 97 % 3.77 C

Legende:
   Min
   Max


Maximal/Minimal-Werte vom 25.02.2021 - 25.02.2021

Sensor Min Max Avg
Temp
(Aussen-T/F)
3.2 °C
25-02-2021  07:35:00
6.7 °C
25-02-2021  01:00:00
4.53 °C
Feuchte
(Aussen-T/F)
94 %
25-02-2021  01:20:00
97 %
25-02-2021  08:25:00
95.41 %
Taupunkt
(Aussen-T/F)
2.63 C
25-02-2021  07:35:00
5.96 C
25-02-2021  01:00:00
3.82 C

Die Daten stammen von einer Davis Vantage Pro 2 Wetter-Station und werden unter Linux mit der Software wview2wettercgi und aufbereitet. Alle Angaben erfolgen ohne Gewähr für ihre Vollständigkeit oder Richtigkeit.
Kontakt: Rainer Krienke krienke@uni-koblenz.de . Meine Webseiten an der Uni Koblenz oder privat.
Version: $Revision: 0.78 $